Time;durP1;ratioP1;P1;durP2;ratioP2;P2;SDS_P1;SDS_P2;PMS_P1;PMS_P2;Temp;Humidity;BMP_temperature;BMP_pressure;BME280_temperature;BME280_humidity;BME280_pressure;Samples;Min_cycle;Max_cycle;Signal;HPM_P1;HPM_P2
2022/04/17 00:01:55;;;;;;;15.68;6.40;;;;;;;-144.47;43.89;53444.03;5059343;28;20457;-68
2022/04/17 00:04:20;;;;;;;21.73;10.68;;;;;;;-144.47;44.16;53455.97;5057906;28;20100;-70
2022/04/17 00:06:46;;;;;;;12.13;4.57;;;;;;;-144.47;44.30;53428.16;5061134;28;20112;-71
2022/04/17 00:09:11;;;;;;;12.02;4.20;;;;;;;-144.47;44.29;53452.00;5059886;28;20089;-70
2022/04/17 00:11:38;;;;;;;12.02;4.53;;;;;;;-144.47;44.41;53453.97;5059185;28;20086;-68
2022/04/17 00:14:03;;;;;;;12.55;4.68;;;;;;;-144.47;44.36;53428.16;5057439;28;20040;-68
2022/04/17 00:16:28;;;;;;;11.30;5.10;;;;;;;-144.47;44.31;53469.88;5040751;28;20036;-67
2022/04/17 00:18:54;;;;;;;8.82;3.95;;;;;;;-144.47;44.41;53453.97;5059353;28;20024;-71
2022/04/17 00:21:20;;;;;;;11.40;5.20;;;;;;;-144.47;44.55;53448.00;5059630;28;20092;-67
2022/04/17 00:23:46;;;;;;;10.07;3.90;;;;;;;-144.47;44.86;53471.84;5058416;28;20045;-69
2022/04/17 00:26:11;;;;;;;18.08;6.05;;;;;;;-144.47;44.71;53455.97;5059170;28;20185;-69
2022/04/17 00:28:36;;;;;;;13.32;7.03;;;;;;;-144.47;44.98;53442.06;5047571;28;20083;-69
2022/04/17 00:31:08;;;;;;;13.77;5.85;;;;;;;-144.47;45.02;53475.81;5039064;28;20031;-69
2022/04/17 00:33:34;;;;;;;21.63;8.90;;;;;;;-144.47;44.73;53436.09;5057753;28;20378;-71
2022/04/17 00:35:59;;;;;;;28.50;10.80;;;;;;;-144.47;44.73;53469.88;5040273;28;20035;-69
2022/04/17 00:38:25;;;;;;;18.88;8.30;;;;;;;-144.47;45.00;53455.97;5058998;28;20041;-70
2022/04/17 00:40:54;;;;;;;10.18;5.00;;;;;;;-144.47;44.69;53452.00;5058508;28;20044;-67
2022/04/17 00:43:30;;;;;;;10.45;4.47;;;;;;;-144.47;44.82;53444.03;5037880;28;20025;-69
2022/04/17 00:45:56;;;;;;;9.20;4.28;;;;;;;-144.47;44.70;53428.16;5063364;28;20021;-69
2022/04/17 00:48:22;;;;;;;9.85;3.90;;;;;;;-144.47;44.84;53450.00;5064692;28;20054;-68
2022/04/17 00:50:49;;;;;;;7.88;4.13;;;;;;;-144.47;45.07;53404.31;5064824;28;20123;-70
2022/04/17 00:53:15;;;;;;;8.68;3.63;;;;;;;-144.47;45.18;53438.09;5064414;28;20127;-67
2022/04/17 00:55:41;;;;;;;10.02;4.28;;;;;;;-144.47;45.23;53448.00;5065697;28;20660;-67
2022/04/17 00:58:07;;;;;;;8.68;3.88;;;;;;;-144.47;45.48;53424.19;5064669;28;20584;-68
2022/04/17 01:00:33;;;;;;;6.63;3.53;;;;;;;-144.47;45.60;53463.91;5065513;28;20397;-67
2022/04/17 01:02:59;;;;;;;12.93;4.35;;;;;;;-144.47;45.80;53465.91;5064328;28;20055;-67
2022/04/17 01:05:24;;;;;;;10.48;4.15;;;;;;;-144.47;45.68;53465.91;5065691;28;20489;-70
2022/04/17 01:07:50;;;;;;;7.95;4.32;;;;;;;-144.47;46.21;53475.81;5065493;28;20115;-66
2022/04/17 01:10:16;;;;;;;11.57;3.97;;;;;;;-144.47;46.17;53452.00;5065874;28;20099;-67
2022/04/17 01:12:41;;;;;;;11.25;4.05;;;;;;;-144.47;46.24;53467.88;5066066;28;20049;-65
2022/04/17 01:15:07;;;;;;;8.27;3.53;;;;;;;-144.47;46.15;53448.00;5065836;28;20017;-69
2022/04/17 01:17:33;;;;;;;12.77;3.70;;;;;;;-144.47;46.25;53459.94;5065329;28;20028;-68
2022/04/17 01:19:58;;;;;;;9.10;3.65;;;;;;;-144.47;46.58;53432.13;5048011;28;20211;-66
2022/04/17 01:22:25;;;;;;;9.63;4.13;;;;;;;-144.47;46.52;53485.75;5064524;28;20397;-66
2022/04/17 01:27:36;;;;;;;10.60;3.92;;;;;;;-144.47;46.55;53453.97;5064865;28;21060;-67
2022/04/17 01:30:03;;;;;;;10.88;4.22;;;;;;;-144.47;46.87;53444.03;5065270;28;20673;-67
2022/04/17 01:32:28;;;;;;;8.52;3.92;;;;;;;-144.47;46.72;53440.06;5064818;28;20342;-66
2022/04/17 01:34:54;;;;;;;8.98;4.20;;;;;;;-144.47;46.93;53446.03;5065459;28;20111;-67
2022/04/17 01:37:19;;;;;;;8.38;3.85;;;;;;;-144.47;47.24;53436.09;5065334;28;20116;-66
2022/04/17 01:39:45;;;;;;;8.00;3.38;;;;;;;-144.47;47.27;53485.75;5066552;28;20052;-67
2022/04/17 01:42:11;;;;;;;7.63;3.70;;;;;;;-144.47;47.38;53438.09;5065314;28;20131;-67
2022/04/17 01:44:37;;;;;;;8.20;3.20;;;;;;;-144.47;47.37;53495.69;5065076;28;20037;-69
2022/04/17 01:47:03;;;;;;;10.20;3.67;;;;;;;-144.47;47.77;53473.84;5064930;28;20037;-66
2022/04/17 01:49:28;;;;;;;7.53;3.60;;;;;;;-144.47;47.79;53469.88;5065371;28;20033;-68
2022/04/17 01:51:55;;;;;;;6.50;3.13;;;;;;;-144.47;48.04;53471.84;5065705;28;20126;-68
2022/04/17 01:54:22;;;;;;;7.70;3.25;;;;;;;-144.47;48.10;53461.91;5061070;28;20047;-68
2022/04/17 01:56:47;;;;;;;9.57;3.00;;;;;;;-144.47;48.14;53479.81;5065776;28;20100;-68
2022/04/17 01:59:13;;;;;;;7.85;3.55;;;;;;;-144.47;48.38;53469.88;5065890;28;20068;-65
2022/04/17 02:01:40;;;;;;;6.97;3.30;;;;;;;-144.47;48.19;53424.19;5066481;28;20039;-68
2022/04/17 02:04:07;;;;;;;8.82;3.45;;;;;;;-144.47;48.55;53481.78;5065236;28;20028;-64
2022/04/17 02:06:33;;;;;;;12.65;3.58;;;;;;;-144.47;48.63;53440.06;5067899;28;20497;-66
2022/04/17 02:08:58;;;;;;;8.15;4.13;;;;;;;-144.47;48.71;53455.97;5068699;28;20033;-67
2022/04/17 02:11:27;;;;;;;7.10;3.65;;;;;;;-144.47;48.91;53459.94;5066981;28;20327;-66
2022/04/17 02:13:53;;;;;;;10.43;4.10;;;;;;;-144.47;48.96;53475.81;5065551;28;20024;-65
2022/04/17 02:16:19;;;;;;;8.02;3.58;;;;;;;-144.47;48.83;53475.81;5065597;28;20504;-67
2022/04/17 02:18:45;;;;;;;9.93;3.72;;;;;;;-144.47;48.62;53414.25;5068284;28;20345;-68
2022/04/17 02:21:13;;;;;;;7.22;3.22;;;;;;;-144.47;48.80;53475.81;5067074;28;20024;-69
2022/04/17 02:23:39;;;;;;;7.20;3.28;;;;;;;-144.47;49.15;53461.91;5067579;28;20430;-69
2022/04/17 02:26:05;;;;;;;7.25;3.10;;;;;;;-144.47;48.98;53475.81;5067171;28;20033;-69
2022/04/17 02:28:34;;;;;;;6.20;3.20;;;;;;;-144.47;49.11;53450.00;5067513;28;20104;-69
2022/04/17 02:31:00;;;;;;;6.00;3.13;;;;;;;-144.47;49.29;53450.00;5065538;28;20012;-68
2022/04/17 02:33:26;;;;;;;10.15;3.33;;;;;;;-144.47;49.36;53477.81;5068118;28;20250;-66
2022/04/17 02:35:53;;;;;;;7.78;3.55;;;;;;;-144.47;49.14;53461.91;5048939;28;20120;-66
2022/04/17 02:38:18;;;;;;;8.32;3.70;;;;;;;-144.47;49.18;53469.88;5067428;28;20025;-69
2022/04/17 02:40:43;;;;;;;7.43;3.28;;;;;;;-144.47;49.36;53452.00;5066577;28;20051;-65
2022/04/17 02:43:09;;;;;;;7.05;3.65;;;;;;;-144.47;49.35;53469.88;5067884;28;20020;-67
2022/04/17 02:45:34;;;;;;;7.53;3.97;;;;;;;-144.47;49.33;53463.91;5049176;28;20036;-67
2022/04/17 02:47:59;;;;;;;9.57;3.80;;;;;;;-144.47;49.44;53469.88;5067409;28;20115;-69
2022/04/17 02:50:24;;;;;;;10.95;3.70;;;;;;;-144.47;49.33;53481.78;5048857;28;20033;-66
2022/04/17 02:52:55;;;;;;;8.27;3.15;;;;;;;-144.47;49.43;53450.00;5066290;28;20373;-67
2022/04/17 02:55:21;;;;;;;8.63;3.58;;;;;;;-144.47;49.39;53444.03;5048344;28;20028;-67
2022/04/17 02:57:46;;;;;;;8.40;2.95;;;;;;;-144.47;49.15;53450.00;5067476;28;20028;-66
2022/04/17 03:00:11;;;;;;;9.68;3.60;;;;;;;-144.47;49.16;53499.66;5066472;28;20020;-69
2022/04/17 03:05:38;;;;;;;8.27;3.40;;;;;;;-144.47;49.47;53450.00;5056688;28;20409;-68
2022/04/17 03:08:14;;;;;;;7.88;3.17;;;;;;;-144.47;49.37;53475.81;5065817;28;20359;-66
2022/04/17 03:10:46;;;;;;;6.30;3.25;;;;;;;-144.47;49.40;53487.75;5063956;28;20419;-68
2022/04/17 03:13:12;;;;;;;10.95;3.05;;;;;;;-144.47;49.31;53467.88;5065165;28;20393;-67
2022/04/17 03:15:38;;;;;;;8.05;3.58;;;;;;;-144.47;49.41;53481.78;5067542;28;20020;-68
2022/04/17 03:18:11;;;;;;;8.13;3.35;;;;;;;-144.47;49.32;53455.97;5064881;28;20104;-68
2022/04/17 03:20:36;;;;;;;7.95;3.40;;;;;;;-144.47;49.60;53452.00;5066342;28;20089;-66
2022/04/17 03:23:03;;;;;;;6.32;2.70;;;;;;;-144.47;49.51;53469.88;5066431;28;20032;-67
2022/04/17 03:25:29;;;;;;;5.15;2.80;;;;;;;-144.47;49.60;53452.00;5065928;28;20374;-69
2022/04/17 03:27:55;;;;;;;9.32;3.72;;;;;;;-144.47;49.67;53481.78;5048190;28;20025;-67
2022/04/17 03:30:21;;;;;;;6.32;3.08;;;;;;;-144.47;50.17;53463.91;5066000;28;20133;-66
2022/04/17 03:32:48;;;;;;;9.90;4.28;;;;;;;-144.47;50.73;53452.00;5066165;28;20124;-66
2022/04/17 03:35:14;;;;;;;6.90;3.20;;;;;;;-144.47;50.96;53465.91;5065959;28;20029;-66
2022/04/17 03:37:43;;;;;;;8.68;3.17;;;;;;;-144.47;50.92;53475.81;5064057;28;20458;-66
2022/04/17 03:40:10;;;;;;;7.53;3.05;;;;;;;-144.47;51.27;53452.00;5065745;28;20032;-67
2022/04/17 03:42:37;;;;;;;8.90;3.63;;;;;;;-144.47;51.27;53463.91;5060958;28;20017;-68
2022/04/17 03:45:06;;;;;;;6.00;3.15;;;;;;;-144.47;51.52;53471.84;5065710;28;20048;-66
2022/04/17 03:47:32;;;;;;;8.85;3.10;;;;;;;-144.47;52.26;53469.88;5066109;28;20029;-66
2022/04/17 03:49:58;;;;;;;8.38;3.45;;;;;;;-144.47;52.84;53475.81;5065552;28;20024;-69
2022/04/17 03:52:23;;;;;;;6.35;3.50;;;;;;;-144.47;52.98;53444.03;5031101;28;20089;-67
2022/04/17 03:54:49;;;;;;;9.57;3.95;;;;;;;-144.47;53.38;53453.97;5066474;28;20017;-68
2022/04/17 03:57:14;;;;;;;6.53;3.38;;;;;;;-144.47;53.50;53493.72;5066464;28;20656;-66
2022/04/17 03:59:39;;;;;;;7.07;3.28;;;;;;;-144.47;53.73;53457.94;5066364;28;20087;-69
2022/04/17 04:02:05;;;;;;;7.22;4.07;;;;;;;-144.47;53.85;53469.88;5065392;28;20047;-67
2022/04/17 04:04:30;;;;;;;9.93;3.63;;;;;;;-144.47;53.96;53483.78;5048090;28;20493;-68
2022/04/17 04:06:56;;;;;;;6.60;3.28;;;;;;;-144.47;53.75;53479.81;5066496;28;20051;-67
2022/04/17 04:09:21;;;;;;;6.63;2.97;;;;;;;-144.47;52.74;53467.88;5065602;28;20067;-68
2022/04/17 04:11:47;;;;;;;8.52;3.05;;;;;;;-144.47;51.94;53487.75;5065451;28;20037;-67
2022/04/17 04:14:12;;;;;;;6.25;3.05;;;;;;;-144.47;51.76;53479.81;5066524;28;20210;-67
2022/04/17 04:16:39;;;;;;;8.38;2.95;;;;;;;-144.47;51.81;53434.09;5064848;28;20492;-66
2022/04/17 04:19:05;;;;;;;6.18;2.97;;;;;;;-144.47;51.71;53499.66;5065141;28;20032;-66
2022/04/17 04:21:30;;;;;;;7.28;2.80;;;;;;;-144.47;52.09;53457.94;5066357;28;20085;-64
2022/04/17 04:23:56;;;;;;;9.20;2.88;;;;;;;-144.47;52.14;53467.88;5064002;28;20032;-70
2022/04/17 04:26:21;;;;;;;7.95;3.25;;;;;;;-144.47;52.19;53505.63;5062722;28;20048;-68
2022/04/17 04:28:46;;;;;;;15.65;3.75;;;;;;;-144.47;51.89;53471.84;5065821;28;20068;-71
2022/04/17 04:31:14;;;;;;;7.43;3.20;;;;;;;-144.47;51.57;53461.91;5066057;28;20024;-69
2022/04/17 04:33:41;;;;;;;7.03;3.15;;;;;;;-144.47;51.71;53452.00;5067049;28;20042;-66
2022/04/17 04:36:12;;;;;;;6.63;2.92;;;;;;;-144.47;51.87;53440.06;5066382;28;20033;-68
2022/04/17 04:38:39;;;;;;;7.57;3.28;;;;;;;-144.47;51.64;53479.81;5064854;28;20052;-70
2022/04/17 04:41:04;;;;;;;7.28;3.75;;;;;;;-144.47;51.88;53503.63;5065491;28;20475;-67
2022/04/17 04:43:30;;;;;;;7.05;2.90;;;;;;;-144.47;51.91;53497.69;5065730;28;20047;-70
2022/04/17 04:46:09;;;;;;;7.03;3.35;;;;;;;-144.47;51.42;53473.84;5062402;28;20035;-67
2022/04/17 04:51:21;;;;;;;6.97;3.20;;;;;;;-144.47;51.30;53485.75;5063571;28;20069;-69
2022/04/17 04:53:46;;;;;;;10.35;3.72;;;;;;;-144.47;51.34;53477.81;5065581;28;20064;-68
2022/04/17 04:56:15;;;;;;;6.35;3.55;;;;;;;-144.47;51.22;53459.94;5046762;28;20075;-69
2022/04/17 04:58:41;;;;;;;;;;;;;;;-144.47;51.27;53493.72;5047859;28;20086;-70
2022/04/17 05:01:06;;;;;;;9.50;3.20;;;;;;;-144.47;50.86;53493.72;5065148;28;19924;-68
2022/04/17 05:03:31;;;;;;;8.13;3.10;;;;;;;-144.47;50.82;53495.69;5065948;28;20020;-70
2022/04/17 05:06:02;;;;;;;7.70;3.17;;;;;;;-144.47;51.15;53497.69;5088091;22;20123;-89
2022/04/17 05:08:39;;;;;;;11.93;3.08;;;;;;;-144.47;51.29;53455.97;5092566;28;20036;-88
2022/04/17 05:11:38;;;;;;;7.72;3.15;;;;;;;-144.47;50.72;53471.84;5053793;28;20039;-90
2022/04/17 05:14:34;;;;;;;10.75;4.22;;;;;;;-144.47;50.74;53446.03;5063430;28;20044;-88
2022/04/17 05:17:47;;;;;;;;;;;;;;;;;;;;;
2022/04/17 05:20:42;;;;;;;9.18;3.85;;;;;;;-144.47;50.80;53497.69;5053625;28;20046;-89
2022/04/17 05:37:55;;;;;;;6.38;3.00;;;;;;;-144.47;50.53;53475.81;4924761;29;20039;-89
2022/04/17 05:44:42;;;;;;;7.55;3.03;;;;;;;-144.47;49.59;53477.81;4929194;28;20051;-89
2022/04/17 05:54:22;;;;;;;8.23;3.38;;;;;;;-144.47;49.71;53475.81;4886907;29;20041;-89
2022/04/17 06:01:05;;;;;;;;;;;;;;;;;;;;;
2022/04/17 06:07:59;;;;;;;7.68;2.95;;;;;;;-144.47;47.14;53438.09;4867079;29;20093;-90
2022/04/17 06:14:27;;;;;;;10.43;3.47;;;;;;;-144.47;46.32;53450.00;4957223;28;20115;-89
2022/04/17 06:17:52;;;;;;;8.90;3.40;;;;;;;-144.47;46.61;53453.97;4937498;29;20043;-89
2022/04/17 06:27:18;;;;;;;6.72;2.90;;;;;;;-144.47;46.01;53432.13;4873325;29;20530;-89
2022/04/17 06:29:56;;;;;;;9.20;3.30;;;;;;;-144.47;45.08;53400.34;4859508;29;20033;-89
2022/04/17 06:32:26;;;;;;;10.10;3.30;;;;;;;-144.47;45.76;53448.00;4873227;29;20040;-89
2022/04/17 06:41:55;;;;;;;;;;;;;;;;;;;;;
2022/04/17 06:45:07;;;;;;;8.68;3.35;;;;;;;-144.47;44.25;53444.03;4805312;29;20126;-89
2022/04/17 06:48:17;;;;;;;11.25;3.35;;;;;;;-144.47;43.31;53450.00;4809841;29;20102;-89
2022/04/17 06:53:58;;;;;;;5.78;2.75;;;;;;;-144.47;43.16;53408.28;4823971;29;20398;-88
2022/04/17 07:00:45;;;;;;;6.88;3.08;;;;;;;-144.47;41.95;53444.03;4860760;29;20443;-88
2022/04/17 07:03:23;;;;;;;14.65;3.28;;;;;;;-144.47;42.03;53465.91;4876134;29;20552;-89
2022/04/17 07:05:54;;;;;;;8.85;2.92;;;;;;;-144.47;41.50;53436.09;4879348;29;20049;-87
2022/04/17 07:08:42;;;;;;;7.68;3.03;;;;;;;-144.47;41.97;53408.28;4903293;29;20044;-90
2022/04/17 07:11:10;;;;;;;5.93;2.70;;;;;;;-144.47;41.64;53416.22;4936782;29;20035;-89
2022/04/17 07:13:46;;;;;;;;;;;;;;;;;;;;;
2022/04/17 07:16:20;;;;;;;6.85;2.88;;;;;;;-144.47;40.53;53418.22;4936127;29;20110;-89
2022/04/17 07:18:57;;;;;;;7.82;2.63;;;;;;;-144.47;40.28;53459.94;4937966;29;20471;-89
2022/04/17 07:22:03;;;;;;;7.15;2.80;;;;;;;-144.47;39.84;53400.34;4923367;29;20035;-86
2022/04/17 07:24:40;;;;;;;7.57;2.75;;;;;;;-144.47;39.70;53406.31;4939238;29;20036;-89
2022/04/17 07:27:31;;;;;;;;;;;;;;;;;;;;;
2022/04/17 07:30:01;;;;;;;7.28;2.83;;;;;;;-144.47;39.96;53420.22;4975899;28;20125;-91
2022/04/17 07:32:30;;;;;;;7.70;3.03;;;;;;;-144.47;39.53;53422.19;4956978;28;20109;-91
2022/04/17 07:38:11;;;;;;;10.30;3.40;;;;;;;-144.47;39.42;53412.25;4999442;28;20104;-91
2022/04/17 07:40:39;;;;;;;7.78;2.83;;;;;;;-144.47;39.11;53416.22;4977072;28;20046;-90
2022/04/17 07:43:13;;;;;;;12.20;3.47;;;;;;;-144.47;38.40;53418.22;4997577;28;20060;-89
2022/04/17 07:45:41;;;;;;;7.57;2.65;;;;;;;-144.47;38.38;53412.25;4956669;28;20046;-89
2022/04/17 07:48:11;;;;;;;7.55;2.80;;;;;;;-144.47;38.35;53414.25;4969975;28;20045;-91
2022/04/17 07:50:43;;;;;;;10.10;3.10;;;;;;;-144.47;38.07;53410.28;4969845;28;20483;-92
2022/04/17 07:53:16;;;;;;;5.68;2.38;;;;;;;-144.47;37.77;53428.16;4977842;28;20520;-92
2022/04/17 07:55:44;;;;;;;6.38;2.70;;;;;;;-144.47;37.22;53404.31;4974000;28;20096;-91
2022/04/17 07:58:16;;;;;;;6.85;2.60;;;;;;;-144.47;36.08;53398.34;4984783;28;20042;-92
2022/04/17 08:03:56;;;;;;;6.25;2.13;;;;;;;-144.47;36.01;53394.38;4977580;28;20158;-92
2022/04/17 08:07:40;;;;;;;;;;;;;;;;;;;;;
2022/04/17 08:13:23;;;;;;;7.88;2.95;;;;;;;-144.47;35.76;53358.63;4967130;28;20383;-90
2022/04/17 08:15:50;;;;;;;5.10;2.28;;;;;;;-144.47;34.85;53406.31;5031907;28;20037;-86
2022/04/17 08:18:18;;;;;;;4.80;2.20;;;;;;;-144.47;34.97;53444.03;5043515;28;20042;-91
2022/04/17 08:21:00;;;;;;;;;;;;;;;;;;;;;
2022/04/17 08:23:44;;;;;;;8.88;3.28;;;;;;;-144.47;34.88;53372.53;5050652;28;20037;-90
2022/04/17 08:26:36;;;;;;;5.57;2.30;;;;;;;-144.47;35.03;53398.34;5039567;28;20056;-91
2022/04/17 08:29:19;;;;;;;5.93;2.65;;;;;;;-144.47;34.47;53406.31;5022094;28;20057;-92
2022/04/17 08:32:08;;;;;;;;;;;;;;;;;;;;;
2022/04/17 08:35:02;;;;;;;;;;;;;;;-144.47;33.98;53328.81;5029864;28;20064;-92
2022/04/17 08:38:11;;;;;;;;;;;;;;;;;;;;;
2022/04/17 08:49:45;;;;;;;4.80;2.00;;;;;;;-144.47;33.91;53348.69;5079611;28;20165;-70
2022/04/17 08:52:15;;;;;;;4.85;2.00;;;;;;;-144.47;33.87;53362.59;5087732;28;20031;-68
2022/04/17 08:54:42;;;;;;;6.93;2.40;;;;;;;-144.47;33.45;53390.41;5088338;28;20476;-69
2022/04/17 08:57:07;;;;;;;8.98;2.55;;;;;;;-144.47;33.40;53376.50;5080531;28;20044;-69
2022/04/17 08:59:33;;;;;;;9.45;2.45;;;;;;;-144.47;33.14;53372.53;5079900;28;20581;-70
2022/04/17 09:02:06;;;;;;;4.78;1.92;;;;;;;-144.47;33.02;53360.63;5081505;28;20409;-69
2022/04/17 09:04:32;;;;;;;5.85;2.47;;;;;;;-144.47;33.29;53394.38;5076529;28;20032;-69
2022/04/17 09:06:57;;;;;;;5.15;2.30;;;;;;;-144.47;33.22;53372.53;5082287;28;20028;-67
2022/04/17 09:09:23;;;;;;;7.97;2.28;;;;;;;-144.47;32.50;53408.28;5088580;28;20176;-67
2022/04/17 09:11:53;;;;;;;5.30;1.98;;;;;;;-144.47;33.29;53376.50;5080786;28;20032;-67
2022/04/17 09:14:19;;;;;;;6.50;1.95;;;;;;;-144.47;32.68;53368.56;5085396;28;20077;-67
2022/04/17 09:16:49;;;;;;;6.15;2.15;;;;;;;-144.47;33.39;53312.94;5088424;28;20028;-68
2022/04/17 09:19:17;;;;;;;5.10;2.10;;;;;;;-144.47;32.83;53364.59;5083907;28;20115;-69
2022/04/17 09:21:43;;;;;;;6.03;2.40;;;;;;;-144.47;33.17;53400.34;5083801;28;20416;-69
2022/04/17 09:24:19;;;;;;;5.07;2.13;;;;;;;-144.47;33.45;53328.81;5087951;28;20028;-66
2022/04/17 09:26:56;;;;;;;5.20;2.60;;;;;;;-144.47;33.85;53376.50;5088553;28;20036;-69
2022/04/17 09:29:29;;;;;;;4.68;2.15;;;;;;;-144.47;33.57;53340.75;5084600;28;20029;-69
2022/04/17 09:32:02;;;;;;;5.00;2.53;;;;;;;-144.47;33.38;53376.50;5064345;28;20457;-68
2022/04/17 09:34:41;;;;;;;5.30;2.10;;;;;;;-144.47;33.26;53308.97;5090811;28;20114;-70
2022/04/17 09:37:12;;;;;;;5.53;2.22;;;;;;;-144.47;33.30;53362.59;5083639;28;20020;-68
2022/04/17 09:39:38;;;;;;;5.63;2.17;;;;;;;-144.47;33.81;53334.78;5080677;28;20050;-69
2022/04/17 09:42:03;;;;;;;7.65;2.53;;;;;;;-144.47;33.67;53338.75;5085418;28;20031;-69
2022/04/17 09:44:45;;;;;;;6.22;2.47;;;;;;;-144.47;33.63;53342.72;5086780;28;20036;-69
2022/04/17 09:47:12;;;;;;;8.32;2.53;;;;;;;-144.47;33.59;53360.63;5085746;28;20405;-69
2022/04/17 09:49:57;;;;;;;4.88;2.22;;;;;;;-144.47;33.70;53303.00;5080772;28;20042;-69
2022/04/17 09:52:29;;;;;;;4.90;1.95;;;;;;;-144.47;34.16;53299.03;5077454;28;20413;-71
2022/04/17 09:54:54;;;;;;;6.60;2.17;;;;;;;-144.47;34.11;53344.72;5089320;28;20687;-66
2022/04/17 09:57:31;;;;;;;6.22;2.38;;;;;;;-144.47;33.70;53354.66;5083770;28;20075;-68
2022/04/17 10:00:05;;;;;;;10.40;2.60;;;;;;;-144.47;33.54;53328.81;5081604;28;20048;-68
2022/04/17 10:02:30;;;;;;;5.75;2.28;;;;;;;-144.47;33.31;53340.75;5082791;28;20044;-71
2022/04/17 10:04:56;;;;;;;5.30;2.38;;;;;;;-144.47;33.42;53338.75;5086463;28;20111;-70
2022/04/17 10:07:22;;;;;;;5.78;2.30;;;;;;;-144.47;33.30;53354.66;5086245;28;20040;-66
2022/04/17 10:09:48;;;;;;;6.00;2.22;;;;;;;-144.47;32.95;53316.91;5082782;28;20491;-67
2022/04/17 10:12:18;;;;;;;6.07;2.38;;;;;;;-144.47;33.00;53352.66;5079813;28;20032;-65
2022/04/17 10:14:47;;;;;;;7.28;2.47;;;;;;;-144.47;33.20;53350.69;5068189;28;20441;-69
2022/04/17 10:17:13;;;;;;;15.38;2.60;;;;;;;-144.47;33.72;53364.59;5080486;28;20525;-67
2022/04/17 10:19:42;;;;;;;7.18;2.60;;;;;;;-144.47;33.97;53328.81;5085232;28;20040;-66
2022/04/17 10:22:09;;;;;;;6.32;2.55;;;;;;;-144.47;34.27;53328.81;5089408;28;20557;-67
2022/04/17 10:24:37;;;;;;;8.13;2.53;;;;;;;-144.47;34.94;53342.72;5082335;28;20078;-69
2022/04/17 10:27:05;;;;;;;6.85;2.80;;;;;;;-144.47;34.37;53358.63;5081935;28;20060;-66
2022/04/17 10:29:47;;;;;;;5.50;2.90;;;;;;;-144.47;34.46;53326.84;5085734;28;20039;-66
2022/04/17 10:32:31;;;;;;;6.03;2.65;;;;;;;-144.47;34.29;53310.94;5083755;28;20024;-66
2022/04/17 10:35:28;;;;;;;5.97;2.35;;;;;;;-144.47;33.90;53344.72;5068841;28;20104;-68
2022/04/17 10:38:02;;;;;;;8.02;2.65;;;;;;;-144.47;33.65;53344.72;5090479;28;20350;-67
2022/04/17 10:40:31;;;;;;;5.82;2.40;;;;;;;-144.47;34.28;53342.72;5090530;28;20052;-69
2022/04/17 10:42:59;;;;;;;5.87;2.50;;;;;;;-144.47;33.73;53344.72;5090138;28;20039;-68
2022/04/17 10:45:26;;;;;;;5.63;2.58;;;;;;;-144.47;34.34;53332.81;5090604;28;20285;-67
2022/04/17 10:48:11;;;;;;;6.28;2.50;;;;;;;-144.47;33.67;53368.56;5090937;28;20085;-67
2022/04/17 10:50:44;;;;;;;7.55;2.55;;;;;;;-144.47;33.96;53348.69;5076124;28;20041;-68
2022/04/17 10:53:28;;;;;;;8.27;2.40;;;;;;;-144.47;34.07;53362.59;5084858;28;20058;-69
2022/04/17 10:56:04;;;;;;;6.15;2.40;;;;;;;-144.47;34.55;53332.81;5086438;28;20056;-67
2022/04/17 10:58:35;;;;;;;6.50;2.13;;;;;;;-144.47;34.59;53356.63;5090536;28;20085;-67
2022/04/17 11:01:01;;;;;;;7.78;2.60;;;;;;;-144.47;34.19;53340.75;5088038;28;20035;-70
2022/04/17 11:03:27;;;;;;;4.55;2.08;;;;;;;-144.47;33.75;53336.78;5051250;28;20020;-69
2022/04/17 11:06:12;;;;;;;4.68;1.67;;;;;;;-144.47;32.48;53330.81;5071061;28;20039;-69
2022/04/17 11:08:49;;;;;;;5.45;2.15;;;;;;;-144.47;33.02;53303.00;5057996;23;20697;-68
2022/04/17 11:11:14;;;;;;;6.43;2.08;;;;;;;-144.47;32.73;53322.88;5029751;28;20480;-68
2022/04/17 11:14:11;;;;;;;4.38;1.80;;;;;;;-144.47;32.71;53318.91;5048629;28;20150;-70
2022/04/17 11:16:44;;;;;;;4.95;1.90;;;;;;;-144.47;33.01;53328.81;5028640;28;20074;-68
2022/04/17 11:19:12;;;;;;;5.47;1.98;;;;;;;-144.47;32.71;53328.81;5050569;28;20024;-68
2022/04/17 11:21:42;;;;;;;6.18;2.00;;;;;;;-144.47;32.97;53322.88;5050248;28;20036;-67
2022/04/17 11:24:08;;;;;;;7.35;2.45;;;;;;;-144.47;33.57;53364.59;5050593;28;20033;-68
2022/04/17 11:26:55;;;;;;;5.85;2.38;;;;;;;-144.47;33.17;53370.53;5049242;28;20125;-69
2022/04/17 11:29:43;;;;;;;5.38;2.33;;;;;;;-144.47;33.37;53330.81;5050665;28;20102;-70
2022/04/17 11:32:17;;;;;;;8.98;2.65;;;;;;;-144.47;33.56;53332.81;5049676;28;20244;-70
2022/04/17 11:34:52;;;;;;;5.97;2.47;;;;;;;-144.47;33.02;53336.78;5050666;28;20052;-69
2022/04/17 11:37:18;;;;;;;7.25;2.85;;;;;;;-144.47;33.13;53326.84;5050152;28;20045;-68
2022/04/17 11:39:45;;;;;;;5.18;2.60;;;;;;;-144.47;33.41;53338.75;5050954;28;20033;-67
2022/04/17 11:42:10;;;;;;;6.47;2.53;;;;;;;-144.47;32.95;53348.69;5053067;28;20039;-68
2022/04/17 11:44:36;;;;;;;8.23;2.60;;;;;;;-144.47;33.13;53310.94;5050935;28;20052;-70
2022/04/17 11:47:02;;;;;;;5.88;2.60;;;;;;;-144.47;32.90;53308.97;5048368;28;20397;-69
2022/04/17 11:49:32;;;;;;;4.75;2.13;;;;;;;-144.47;32.81;53314.91;5055522;28;20047;-68
2022/04/17 11:52:12;;;;;;;5.93;2.75;;;;;;;-144.47;32.88;53348.69;5052599;28;20012;-71
2022/04/17 11:54:37;;;;;;;5.85;2.20;;;;;;;-144.47;32.88;53308.97;5049951;28;20090;-70
2022/04/17 11:57:03;;;;;;;10.07;2.60;;;;;;;-144.47;33.13;53330.81;5047910;28;20037;-71
2022/04/17 11:59:28;;;;;;;5.13;2.40;;;;;;;-144.47;33.45;53322.88;5051734;28;20031;-70
2022/04/17 12:02:10;;;;;;;8.32;2.72;;;;;;;-144.47;32.58;53336.78;5054084;28;20042;-72
2022/04/17 12:04:36;;;;;;;5.82;2.22;;;;;;;-144.47;32.74;53326.84;5028211;28;20045;-72
2022/04/17 12:07:02;;;;;;;6.47;2.63;;;;;;;-144.47;32.35;53326.84;5048509;28;20038;-69
2022/04/17 12:09:27;;;;;;;5.82;2.25;;;;;;;-144.47;32.52;53328.81;5031124;28;20711;-71
2022/04/17 12:11:52;;;;;;;6.35;2.30;;;;;;;-144.47;32.30;53336.78;5049099;28;20071;-70
2022/04/17 12:14:31;;;;;;;4.00;2.20;;;;;;;-144.47;32.63;53328.81;5052238;28;20037;-72
2022/04/17 12:16:57;;;;;;;4.43;2.30;;;;;;;-144.47;32.52;53330.81;5053198;28;20591;-72
2022/04/17 12:19:22;;;;;;;6.43;2.20;;;;;;;-144.47;32.25;53293.06;5051269;28;20124;-68
2022/04/17 12:21:48;;;;;;;6.35;2.35;;;;;;;-144.47;32.55;53334.78;5054701;28;20090;-70
2022/04/17 12:24:14;;;;;;;5.10;2.17;;;;;;;-144.47;32.64;53308.97;5050849;28;20082;-70
2022/04/17 12:26:40;;;;;;;5.30;2.05;;;;;;;-144.47;32.98;53324.84;5032580;28;20076;-69
2022/04/17 12:29:06;;;;;;;5.00;2.10;;;;;;;-144.47;32.58;53301.03;5030495;28;20036;-70
2022/04/17 12:31:33;;;;;;;5.25;2.13;;;;;;;-144.47;31.56;53324.84;5047739;28;20059;-68
2022/04/17 12:34:13;;;;;;;5.85;2.15;;;;;;;-144.47;31.77;53305.00;5055288;28;20096;-72
2022/04/17 12:36:40;;;;;;;5.22;2.00;;;;;;;-144.47;31.66;53305.00;5046865;28;20025;-70
2022/04/17 12:39:07;;;;;;;5.55;1.70;;;;;;;-144.47;31.67;53293.06;5049598;28;20036;-70
2022/04/17 12:41:43;;;;;;;7.10;2.03;;;;;;;-144.47;31.61;53352.66;5053355;28;20701;-70
2022/04/17 12:44:09;;;;;;;7.18;2.40;;;;;;;-144.47;31.69;53275.19;5047329;28;20033;-71
2022/04/17 12:46:36;;;;;;;5.28;1.85;;;;;;;-144.47;31.32;53330.81;5050507;28;20455;-68
2022/04/17 12:49:15;;;;;;;5.15;1.77;;;;;;;-144.47;31.11;53316.91;5052330;28;20024;-70
2022/04/17 12:51:54;;;;;;;4.20;1.75;;;;;;;-144.47;31.05;53279.16;5052721;28;20123;-68
2022/04/17 12:54:19;;;;;;;3.75;2.08;;;;;;;-144.47;30.99;53249.38;5046932;28;20043;-68
2022/04/17 12:56:44;;;;;;;5.78;2.55;;;;;;;-144.47;30.80;53267.25;5054248;28;20109;-71
2022/04/17 12:59:11;;;;;;;3.90;1.85;;;;;;;-144.47;30.39;53249.38;5063564;28;20466;-69
2022/04/17 13:01:37;;;;;;;5.82;2.45;;;;;;;-144.47;30.04;53277.19;5059125;28;20040;-69
2022/04/17 13:04:16;;;;;;;6.72;2.67;;;;;;;-144.47;29.42;53297.03;5046602;28;20017;-68
2022/04/17 13:06:42;;;;;;;3.72;1.83;;;;;;;-144.47;29.74;53287.13;5054795;28;20035;-68
2022/04/17 13:09:13;;;;;;;8.05;2.70;;;;;;;-144.47;30.49;53316.91;5052510;28;20121;-69
2022/04/17 13:11:49;;;;;;;7.20;2.30;;;;;;;-144.47;30.31;53293.06;5059256;28;20431;-70